HETB/TCP METAR and TAF weather

Enter ICAO airport designator
Station Type Date Time Source
HETB METAR 2018/02/10 18:00 UTC NOAA

HETB 101800Z NI


Station Type Date Time Source
HETB Decoded METAR 2018/02/10 18:00 UTC NOAA

Taba, Egypt (HETB) 29-35-57N 034-46-36E
Feb 10, 2018 - 01:00 PM EST / 2018.02.10 1800 UTC
ob: HETB 101800Z NI
cycle: 18

Station Type Date Time Source
HETB TAF 2018/07/16 18:12 UTC NOAA

TAF HETB 161700Z 1618/1724 26010KT CAVOK


Example: see airport list